createdAt,value
2017-08-14T00:00:29.291Z,16.6
2017-08-14T00:01:30.697Z,16.7
2017-08-14T00:02:32.109Z,16.7
2017-08-14T00:03:33.499Z,16.6
2017-08-14T00:04:34.887Z,16.7
2017-08-14T00:05:36.284Z,16.7
2017-08-14T00:06:37.707Z,16.7
2017-08-14T00:07:39.102Z,16.6
2017-08-14T00:08:40.492Z,16.7
2017-08-14T00:09:41.927Z,16.6
2017-08-14T00:10:43.336Z,16.7
2017-08-14T00:11:45.738Z,16.7
2017-08-14T00:12:47.140Z,16.7
2017-08-14T00:13:48.560Z,16.6
2017-08-14T00:14:49.954Z,16.6
2017-08-14T00:15:51.380Z,16.7
2017-08-14T00:16:52.756Z,16.7
2017-08-14T00:17:54.145Z,16.7
2017-08-14T00:18:55.542Z,16.7
2017-08-14T00:19:56.934Z,16.6
2017-08-14T00:20:58.325Z,16.6
2017-08-14T00:21:59.727Z,16.7
2017-08-14T00:23:01.142Z,16.6
2017-08-14T00:24:02.560Z,16.6
2017-08-14T00:25:03.987Z,16.6
2017-08-14T00:26:05.371Z,16.5
2017-08-14T00:27:06.769Z,16.5
2017-08-14T00:28:08.121Z,16.6
2017-08-14T00:29:09.555Z,16.7
2017-08-14T00:30:10.919Z,16.6
2017-08-14T00:31:12.302Z,16.6
2017-08-14T00:32:13.677Z,16.6
2017-08-14T00:33:15.103Z,16.7
2017-08-14T00:34:16.523Z,16.6
2017-08-14T00:35:17.900Z,16.6
2017-08-14T00:36:19.337Z,16.6
2017-08-14T00:37:20.735Z,16.6
2017-08-14T00:38:22.128Z,16.6
2017-08-14T00:39:23.520Z,16.6
2017-08-14T00:40:24.917Z,16.5
2017-08-14T00:41:26.326Z,16.6
2017-08-14T00:42:27.718Z,16.5
2017-08-14T00:43:29.096Z,16.5
2017-08-14T00:44:30.476Z,16.5
2017-08-14T00:45:31.929Z,16.6
2017-08-14T00:46:33.311Z,16.6
2017-08-14T00:47:34.711Z,16.6
2017-08-14T00:48:36.152Z,16.6
2017-08-14T00:49:37.561Z,16.6
2017-08-14T00:50:39.000Z,16.7
2017-08-14T00:51:40.426Z,16.6
2017-08-14T00:52:41.830Z,16.5
2017-08-14T00:53:43.253Z,16.6
2017-08-14T00:54:44.673Z,16.6
2017-08-14T00:55:46.094Z,16.7
2017-08-14T00:56:47.563Z,16.6
2017-08-14T00:57:48.979Z,16.6
2017-08-14T00:58:50.413Z,16.6
2017-08-14T00:59:51.840Z,16.6
2017-08-14T01:00:53.205Z,16.5
2017-08-14T01:01:54.574Z,16.6
2017-08-14T01:02:55.991Z,16.6
2017-08-14T01:03:57.366Z,16.7
2017-08-14T01:04:58.752Z,16.6
2017-08-14T01:06:00.138Z,16.7
2017-08-14T01:07:01.533Z,16.6
2017-08-14T01:08:02.920Z,16.6
2017-08-14T01:09:04.301Z,16.6
2017-08-14T01:10:05.697Z,16.7
2017-08-14T01:11:07.072Z,16.6
2017-08-14T01:12:08.451Z,16.6
2017-08-14T01:13:10.839Z,16.6
2017-08-14T01:14:12.228Z,16.6
2017-08-14T01:15:13.623Z,16.6
2017-08-14T01:16:15.006Z,16.6
2017-08-14T01:17:17.395Z,16.6
2017-08-14T01:18:18.794Z,16.6
2017-08-14T01:19:21.189Z,16.6
2017-08-14T01:20:22.564Z,16.5
2017-08-14T01:21:23.955Z,16.6
2017-08-14T01:22:25.331Z,16.6
2017-08-14T01:23:26.712Z,16.5
2017-08-14T01:24:28.083Z,16.5
2017-08-14T01:25:29.475Z,16.6
2017-08-14T01:26:30.839Z,16.6
2017-08-14T01:27:38.253Z,16.4
2017-08-14T01:28:40.960Z,16.5
2017-08-14T01:29:42.384Z,16.6
2017-08-14T01:30:43.747Z,16.6
2017-08-14T01:31:45.204Z,16.6
2017-08-14T01:32:46.583Z,16.6
2017-08-14T01:33:48.018Z,16.5
2017-08-14T01:34:49.447Z,16.5
2017-08-14T01:35:50.832Z,16.6
2017-08-14T01:36:52.254Z,16.7
2017-08-14T01:37:53.648Z,16.7
2017-08-14T01:38:55.054Z,16.7
2017-08-14T01:39:56.532Z,16.7
2017-08-14T01:40:57.939Z,16.6
2017-08-14T01:41:59.330Z,16.7
2017-08-14T01:43:00.746Z,16.6
2017-08-14T01:44:02.171Z,16.7
2017-08-14T01:45:03.591Z,16.7
2017-08-14T01:46:04.972Z,16.7
2017-08-14T01:47:06.390Z,16.7
2017-08-14T01:48:07.821Z,16.7
2017-08-14T01:49:09.236Z,16.7
2017-08-14T01:50:10.631Z,16.6
2017-08-14T01:51:12.043Z,16.6
2017-08-14T01:52:13.451Z,16.7
2017-08-14T01:53:14.909Z,16.7
2017-08-14T01:54:16.349Z,16.7
2017-08-14T01:55:17.764Z,16.7
2017-08-14T01:56:19.206Z,16.7
2017-08-14T01:57:20.633Z,16.6
2017-08-14T01:58:22.109Z,16.7
2017-08-14T01:59:23.483Z,16.7
2017-08-14T02:00:24.886Z,16.8
2017-08-14T02:01:26.301Z,16.8
2017-08-14T02:02:27.677Z,16.8
2017-08-14T02:03:29.084Z,16.8
2017-08-14T02:04:30.476Z,16.8
2017-08-14T02:05:31.922Z,16.8
2017-08-14T02:06:33.305Z,16.8
2017-08-14T02:07:34.684Z,16.8
2017-08-14T02:08:36.069Z,16.7
2017-08-14T02:09:37.461Z,16.8
2017-08-14T02:10:38.852Z,16.8
2017-08-14T02:11:40.253Z,16.7
2017-08-14T02:12:41.634Z,16.7
2017-08-14T02:13:43.008Z,16.8
2017-08-14T02:14:44.391Z,16.8
2017-08-14T02:15:45.783Z,16.9
2017-08-14T02:16:47.166Z,16.9
2017-08-14T02:17:48.555Z,16.9
2017-08-14T02:18:49.942Z,16.8
2017-08-14T02:19:51.332Z,16.8
2017-08-14T02:20:52.720Z,16.8
2017-08-14T02:21:54.094Z,16.9
2017-08-14T02:22:55.487Z,16.8
2017-08-14T02:23:56.870Z,16.8
2017-08-14T02:24:58.254Z,16.9
2017-08-14T02:25:59.639Z,16.8
2017-08-14T02:27:01.023Z,16.8
2017-08-14T02:28:02.432Z,16.9
2017-08-14T02:29:03.806Z,16.9
2017-08-14T02:30:05.206Z,16.9
2017-08-14T02:31:06.606Z,16.9
2017-08-14T02:32:07.981Z,17.0
2017-08-14T02:33:09.376Z,17.0
2017-08-14T02:34:10.768Z,17.0
2017-08-14T02:35:12.149Z,16.9
2017-08-14T02:36:13.557Z,16.9
2017-08-14T02:37:14.957Z,17.0
2017-08-14T02:38:16.330Z,17.0
2017-08-14T02:39:17.744Z,17.0
2017-08-14T02:40:19.116Z,16.9
2017-08-14T02:41:20.500Z,16.9
2017-08-14T02:42:21.893Z,17.0
2017-08-14T02:43:25.269Z,16.9
2017-08-14T02:44:26.654Z,16.9
2017-08-14T02:45:28.040Z,17.0
2017-08-14T02:46:29.426Z,16.9
2017-08-14T02:47:30.807Z,16.9
2017-08-14T02:48:32.185Z,16.9
2017-08-14T02:49:33.589Z,16.9
2017-08-14T02:50:34.972Z,16.9
2017-08-14T02:51:36.369Z,16.9
2017-08-14T02:52:37.800Z,16.8
2017-08-14T02:53:39.199Z,17.0
2017-08-14T02:54:40.605Z,16.9
2017-08-14T02:55:41.992Z,17.0
2017-08-14T02:56:43.374Z,16.9
2017-08-14T02:57:44.763Z,17.0
2017-08-14T02:58:46.146Z,16.9
2017-08-14T02:59:47.534Z,16.9
2017-08-14T03:00:48.907Z,16.9
2017-08-14T03:01:50.289Z,16.9
2017-08-14T03:02:51.669Z,16.9
2017-08-14T03:03:53.056Z,17.0
2017-08-14T03:04:54.434Z,17.0
2017-08-14T03:05:55.815Z,16.9
2017-08-14T03:06:57.205Z,16.9
2017-08-14T03:07:58.594Z,17.0
2017-08-14T03:08:59.987Z,16.9
2017-08-14T03:10:01.402Z,16.9
2017-08-14T03:11:02.788Z,16.9
2017-08-14T03:12:04.166Z,16.9
2017-08-14T03:13:05.559Z,16.9
2017-08-14T03:14:06.966Z,16.9
2017-08-14T03:15:08.342Z,17.0
2017-08-14T03:16:09.732Z,16.9
2017-08-14T03:17:11.112Z,16.9
2017-08-14T03:18:12.511Z,16.9
2017-08-14T03:19:13.916Z,17.0
2017-08-14T03:20:15.282Z,17.0
2017-08-14T03:21:16.679Z,16.9
2017-08-14T03:22:18.058Z,17.0
2017-08-14T03:23:19.449Z,16.9
2017-08-14T03:24:20.841Z,16.9
2017-08-14T03:25:22.253Z,16.9
2017-08-14T03:26:23.637Z,17.0
2017-08-14T03:27:25.048Z,17.1
2017-08-14T03:28:26.481Z,17.0
2017-08-14T03:29:27.880Z,17.0
2017-08-14T03:30:29.303Z,17.1
2017-08-14T03:31:30.696Z,17.1
2017-08-14T03:32:32.078Z,17.0
2017-08-14T03:33:33.492Z,17.1
2017-08-14T03:34:34.967Z,17.0
2017-08-14T03:35:36.380Z,16.9
2017-08-14T03:36:37.780Z,16.9
2017-08-14T03:37:39.174Z,17.0
2017-08-14T03:38:40.585Z,17.0
2017-08-14T03:39:41.979Z,16.9
2017-08-14T03:40:43.365Z,17.0
2017-08-14T03:41:44.749Z,16.9
2017-08-14T03:42:46.141Z,17.0
2017-08-14T03:43:47.544Z,16.9
2017-08-14T03:44:48.936Z,16.9
2017-08-14T03:45:50.354Z,16.9
2017-08-14T03:46:51.748Z,17.0
2017-08-14T03:47:53.143Z,16.8
2017-08-14T03:48:54.552Z,16.9
2017-08-14T03:49:55.976Z,16.9
2017-08-14T03:50:57.368Z,16.9
2017-08-14T03:51:58.776Z,16.8
2017-08-14T03:53:00.176Z,16.9
2017-08-14T03:54:01.562Z,16.9
2017-08-14T03:55:02.957Z,16.9
2017-08-14T03:56:04.351Z,16.9
2017-08-14T03:57:05.751Z,16.8
2017-08-14T03:58:07.156Z,16.8
2017-08-14T03:59:08.580Z,16.8
2017-08-14T04:00:09.969Z,16.8
2017-08-14T04:01:11.383Z,16.8
2017-08-14T04:02:12.787Z,16.8
2017-08-14T04:03:14.190Z,16.9
2017-08-14T04:04:15.594Z,16.8
2017-08-14T04:05:17.008Z,16.9
2017-08-14T04:06:18.432Z,16.9
2017-08-14T04:07:20.846Z,16.9
2017-08-14T04:08:22.229Z,16.9
2017-08-14T04:09:23.625Z,16.9
2017-08-14T04:10:25.030Z,16.9
2017-08-14T04:11:26.447Z,16.9
2017-08-14T04:12:27.850Z,16.9
2017-08-14T04:13:29.238Z,16.8
2017-08-14T04:14:30.637Z,16.9
2017-08-14T04:15:32.080Z,16.8
2017-08-14T04:16:33.485Z,16.8
2017-08-14T04:17:34.897Z,16.9
2017-08-14T04:18:36.308Z,16.9
2017-08-14T04:19:37.735Z,16.8
2017-08-14T04:20:39.115Z,16.9
2017-08-14T04:21:40.528Z,16.9
2017-08-14T04:22:41.918Z,16.9
2017-08-14T04:23:43.312Z,16.9
2017-08-14T04:24:44.698Z,16.9
2017-08-14T04:25:46.097Z,16.8
2017-08-14T04:26:47.502Z,16.9
2017-08-14T04:27:49.027Z,16.9
2017-08-14T04:28:50.440Z,16.8
2017-08-14T04:29:51.865Z,16.9
2017-08-14T04:30:53.346Z,16.9
2017-08-14T04:31:54.748Z,16.9
2017-08-14T04:32:56.205Z,16.9
2017-08-14T04:33:57.621Z,16.9
2017-08-14T04:34:58.999Z,16.9
2017-08-14T04:36:00.402Z,16.8
2017-08-14T04:37:01.782Z,16.8
2017-08-14T04:38:03.222Z,16.9
2017-08-14T04:39:04.626Z,16.9
2017-08-14T04:40:06.016Z,16.9
2017-08-14T04:41:07.470Z,16.9
2017-08-14T04:42:08.880Z,17.0
2017-08-14T04:43:10.284Z,16.9
2017-08-14T04:44:11.680Z,16.9
2017-08-14T04:45:13.070Z,17.0
2017-08-14T04:46:14.541Z,17.0
2017-08-14T04:47:15.947Z,17.0
2017-08-14T04:48:17.379Z,16.9
2017-08-14T04:49:18.762Z,17.0
2017-08-14T04:50:20.154Z,16.9
2017-08-14T04:51:21.536Z,17.0
2017-08-14T04:52:22.955Z,17.1
2017-08-14T04:53:24.387Z,17.1
2017-08-14T04:54:25.796Z,17.1
2017-08-14T04:55:27.214Z,17.1
2017-08-14T04:56:29.656Z,17.0
2017-08-14T04:57:31.052Z,17.0
2017-08-14T04:58:32.480Z,17.1
2017-08-14T04:59:33.853Z,17.1
2017-08-14T05:00:35.263Z,17.1
2017-08-14T05:01:36.677Z,17.0
2017-08-14T05:02:38.083Z,17.1
2017-08-14T05:03:39.468Z,17.1
2017-08-14T05:04:40.873Z,17.0
2017-08-14T05:05:42.260Z,17.1
2017-08-14T05:06:43.678Z,17.0
2017-08-14T05:07:45.062Z,17.0
2017-08-14T05:08:46.483Z,17.1
2017-08-14T05:09:47.882Z,17.0
2017-08-14T05:10:49.279Z,17.0
2017-08-14T05:11:50.683Z,17.0
2017-08-14T05:12:52.069Z,17.0
2017-08-14T05:13:53.463Z,17.1
2017-08-14T05:14:54.854Z,17.0
2017-08-14T05:15:56.277Z,17.0
2017-08-14T05:16:57.665Z,17.0
2017-08-14T05:17:59.048Z,17.1
2017-08-14T05:19:00.467Z,17.1
2017-08-14T05:20:01.883Z,17.0
2017-08-14T05:21:04.298Z,17.1
2017-08-14T05:22:05.686Z,17.1
2017-08-14T05:23:07.141Z,17.1
2017-08-14T05:24:08.541Z,17.1
2017-08-14T05:25:09.951Z,17.1
2017-08-14T05:26:11.395Z,17.0
2017-08-14T05:27:12.808Z,17.1
2017-08-14T05:28:14.198Z,17.0
2017-08-14T05:29:15.591Z,17.0
2017-08-14T05:30:17.020Z,17.0
2017-08-14T05:31:18.377Z,17.0
2017-08-14T05:32:19.771Z,17.0
2017-08-14T05:33:21.199Z,17.0
2017-08-14T05:34:22.613Z,17.0
2017-08-14T05:35:24.028Z,16.9
2017-08-14T05:36:25.403Z,17.0
2017-08-14T05:37:26.893Z,17.0
2017-08-14T05:38:28.282Z,17.1
2017-08-14T05:39:29.699Z,17.0
2017-08-14T05:40:31.120Z,17.1
2017-08-14T05:41:32.538Z,17.0
2017-08-14T05:42:33.969Z,17.0
2017-08-14T05:43:35.435Z,17.1
2017-08-14T05:44:36.835Z,17.1
2017-08-14T05:45:38.227Z,17.1
2017-08-14T05:46:39.639Z,17.3
2017-08-14T05:47:41.045Z,17.2
2017-08-14T05:48:42.456Z,17.2
2017-08-14T05:49:43.879Z,17.2
2017-08-14T05:50:45.289Z,17.3
2017-08-14T05:51:46.693Z,17.3
2017-08-14T05:52:48.164Z,17.3
2017-08-14T05:53:49.620Z,17.4
2017-08-14T05:54:51.188Z,17.4
2017-08-14T05:55:52.833Z,17.3
2017-08-14T05:56:54.360Z,17.5
2017-08-14T05:57:55.942Z,17.6
2017-08-14T05:58:57.562Z,17.5
2017-08-14T06:00:00.153Z,17.6
2017-08-14T06:01:01.698Z,17.6
2017-08-14T06:02:03.270Z,17.6
2017-08-14T06:03:05.050Z,17.7
2017-08-14T06:04:07.700Z,17.7
2017-08-14T06:05:09.311Z,17.8
2017-08-14T06:06:10.872Z,17.8
2017-08-14T06:07:12.452Z,17.7
2017-08-14T06:08:14.056Z,17.7
2017-08-14T06:09:15.599Z,17.8
2017-08-14T06:10:17.176Z,17.8
2017-08-14T06:11:18.753Z,17.8
2017-08-14T06:12:20.290Z,17.8
2017-08-14T06:13:21.915Z,17.9
2017-08-14T06:14:23.654Z,17.9
2017-08-14T06:15:25.309Z,17.9
2017-08-14T06:16:27.031Z,17.9
2017-08-14T06:17:28.735Z,17.9
2017-08-14T06:18:30.485Z,18.0
2017-08-14T06:19:32.083Z,18.0
2017-08-14T06:20:33.751Z,18.1
2017-08-14T06:21:35.904Z,18.0
2017-08-14T06:22:38.024Z,18.1
2017-08-14T06:23:39.970Z,18.1
2017-08-14T06:24:41.762Z,18.1
2017-08-14T06:25:43.312Z,18.1
2017-08-14T06:26:44.877Z,18.2
2017-08-14T06:27:46.444Z,18.3
2017-08-14T06:28:48.042Z,18.4
2017-08-14T06:29:49.630Z,18.4
2017-08-14T06:30:51.266Z,18.4
2017-08-14T06:31:52.864Z,18.4
2017-08-14T06:32:54.436Z,18.5
2017-08-14T06:33:56.008Z,18.4
2017-08-14T06:34:57.521Z,18.5
2017-08-14T06:35:59.180Z,18.5
2017-08-14T06:37:00.723Z,18.6
2017-08-14T06:38:02.419Z,18.7
2017-08-14T06:39:03.973Z,18.8
2017-08-14T06:40:05.561Z,18.9
2017-08-14T06:41:07.268Z,19.1
2017-08-14T06:42:08.812Z,19.2
2017-08-14T06:43:10.357Z,19.2
2017-08-14T06:44:11.855Z,19.1
2017-08-14T06:45:13.395Z,19.1
2017-08-14T06:46:14.937Z,19.3
2017-08-14T06:47:17.648Z,19.4
2017-08-14T06:48:19.342Z,19.5
2017-08-14T06:49:20.946Z,19.5
2017-08-14T06:50:22.480Z,19.8
2017-08-14T06:51:24.171Z,19.7
2017-08-14T06:52:25.764Z,19.6
2017-08-14T06:53:27.350Z,19.9
2017-08-14T06:54:28.920Z,19.9
2017-08-14T06:55:31.517Z,19.9
2017-08-14T06:56:33.006Z,19.8
2017-08-14T06:57:34.551Z,19.8
2017-08-14T06:58:36.198Z,19.8
2017-08-14T06:59:37.916Z,19.9
2017-08-14T07:01:40.791Z,20.4
2017-08-14T07:02:42.184Z,20.3
2017-08-14T07:03:43.577Z,20.4
2017-08-14T07:04:44.972Z,20.2
2017-08-14T07:05:46.364Z,20.2
2017-08-14T07:06:47.819Z,20.2
2017-08-14T07:07:49.234Z,20.2
2017-08-14T07:08:50.910Z,20.2
2017-08-14T07:09:52.322Z,20.2
2017-08-14T07:10:53.742Z,20.1
2017-08-14T07:11:55.343Z,20.3
2017-08-14T07:12:56.753Z,20.2
2017-08-14T07:13:58.149Z,20.4
2017-08-14T07:14:59.684Z,20.6
2017-08-14T07:16:01.095Z,20.7
2017-08-14T07:17:02.524Z,20.9
2017-08-14T07:18:04.084Z,20.8
2017-08-14T07:19:05.542Z,20.8
2017-08-14T07:20:07.054Z,20.8
2017-08-14T07:21:08.470Z,20.9
2017-08-14T07:22:11.053Z,21.1
2017-08-14T07:23:12.451Z,21.3
2017-08-14T07:24:13.875Z,21.4
2017-08-14T07:25:15.439Z,21.5
2017-08-14T07:26:17.268Z,21.6
2017-08-14T07:27:18.837Z,21.6
2017-08-14T07:28:22.583Z,21.9
2017-08-14T07:29:23.988Z,22.0
2017-08-14T07:30:25.388Z,22.2
2017-08-14T07:31:26.791Z,22.2
2017-08-14T07:32:28.194Z,22.2
2017-08-14T07:33:30.575Z,22.2
2017-08-14T07:34:31.992Z,22.2
2017-08-14T07:35:33.436Z,22.4
2017-08-14T07:36:34.925Z,22.5
2017-08-14T07:37:36.949Z,22.4
2017-08-14T07:38:38.383Z,22.1
2017-08-14T07:39:40.604Z,22.2
2017-08-14T07:40:42.767Z,22.6
2017-08-14T07:41:44.653Z,22.6
2017-08-14T07:42:46.120Z,22.7
2017-08-14T07:43:50.642Z,22.7
2017-08-14T07:44:52.133Z,22.6
2017-08-14T07:45:54.694Z,22.9
2017-08-14T07:46:56.203Z,23.0
2017-08-14T07:47:58.648Z,23.1
2017-08-14T07:49:00.271Z,23.1
2017-08-14T07:50:02.412Z,23.0
2017-08-14T07:51:03.828Z,22.8
2017-08-14T07:52:05.227Z,22.7
2017-08-14T07:53:06.691Z,22.8
2017-08-14T07:54:08.638Z,23.1
2017-08-14T07:55:10.460Z,23.1
2017-08-14T07:56:14.459Z,23.1
2017-08-14T07:57:15.856Z,23.2
2017-08-14T07:58:18.934Z,23.1
2017-08-14T07:59:21.165Z,23.2
2017-08-14T08:01:42.550Z,23.1
2017-08-14T08:02:43.997Z,23.2
2017-08-14T08:03:45.914Z,23.1
2017-08-14T08:04:47.322Z,23.1
2017-08-14T08:05:48.726Z,23.1
2017-08-14T08:06:50.143Z,23.1
2017-08-14T08:07:52.223Z,23.2
2017-08-14T08:08:55.536Z,22.9
2017-08-14T08:09:57.045Z,22.9
2017-08-14T08:10:59.256Z,22.9
2017-08-14T08:12:00.676Z,23.0
2017-08-14T08:13:02.768Z,23.1
2017-08-14T08:14:04.192Z,23.2
2017-08-14T08:15:07.209Z,23.3
2017-08-14T08:16:08.626Z,23.3
2017-08-14T08:17:10.566Z,23.5
2017-08-14T08:18:12.860Z,23.5
2017-08-14T08:19:14.255Z,23.5
2017-08-14T08:20:15.723Z,23.6
2017-08-14T08:21:17.153Z,23.7
2017-08-14T08:22:19.567Z,23.9
2017-08-14T08:23:21.018Z,24.0
2017-08-14T08:24:22.414Z,24.2
2017-08-14T08:25:23.834Z,24.2
2017-08-14T08:26:25.209Z,24.2
2017-08-14T08:27:26.612Z,24.2
2017-08-14T08:28:28.019Z,24.2
2017-08-14T08:29:29.423Z,24.2
2017-08-14T08:30:30.843Z,24.3
2017-08-14T08:31:32.290Z,24.4
2017-08-14T08:32:33.698Z,24.4
2017-08-14T08:33:35.094Z,24.6
2017-08-14T08:34:36.877Z,24.7
2017-08-14T08:35:38.279Z,24.5
2017-08-14T08:36:39.714Z,24.5
2017-08-14T08:37:41.133Z,24.6
2017-08-14T08:38:42.535Z,24.7
2017-08-14T08:39:44.834Z,24.8
2017-08-14T08:40:46.250Z,24.9
2017-08-14T08:41:48.537Z,25.0
2017-08-14T08:42:49.956Z,25.0
2017-08-14T08:43:51.364Z,24.9
2017-08-14T08:44:52.797Z,25.1
2017-08-14T08:45:54.205Z,25.3
2017-08-14T08:46:55.619Z,25.5
2017-08-14T08:47:57.040Z,25.4
2017-08-14T08:48:59.148Z,25.5
2017-08-14T08:50:00.547Z,25.3
2017-08-14T08:51:01.968Z,25.0
2017-08-14T08:52:03.376Z,25.1
2017-08-14T08:53:04.787Z,25.2
2017-08-14T08:54:07.048Z,25.5
2017-08-14T08:55:08.466Z,25.6
2017-08-14T08:56:09.929Z,25.4
2017-08-14T08:57:11.362Z,25.1
2017-08-14T08:58:12.767Z,25.1
2017-08-14T08:59:15.642Z,25.4
2017-08-14T09:00:17.040Z,25.5
2017-08-14T09:01:40.835Z,25.6
2017-08-14T09:02:42.234Z,25.7
2017-08-14T09:03:43.665Z,25.8
2017-08-14T09:04:45.057Z,25.8
2017-08-14T09:05:46.472Z,25.8
2017-08-14T09:06:47.888Z,25.9
2017-08-14T09:07:49.302Z,25.6
2017-08-14T09:08:50.710Z,25.0
2017-08-14T09:09:52.147Z,25.0
2017-08-14T09:10:53.540Z,24.9
2017-08-14T09:11:54.944Z,25.1
2017-08-14T09:12:56.340Z,25.0
2017-08-14T09:13:57.755Z,25.2
2017-08-14T09:14:59.154Z,25.3
2017-08-14T09:16:00.556Z,25.5
2017-08-14T09:17:01.955Z,25.4
2017-08-14T09:18:03.357Z,25.0
2017-08-14T09:19:04.766Z,25.0
2017-08-14T09:20:06.190Z,25.0
2017-08-14T09:21:07.613Z,25.3
2017-08-14T09:22:09.021Z,25.5
2017-08-14T09:23:10.422Z,25.2
2017-08-14T09:24:11.848Z,25.2
2017-08-14T09:25:13.254Z,25.5
2017-08-14T09:26:14.717Z,25.7
2017-08-14T09:27:16.118Z,25.8
2017-08-14T09:28:17.526Z,26.1
2017-08-14T09:29:18.929Z,26.3
2017-08-14T09:30:20.340Z,25.9
2017-08-14T09:31:21.769Z,25.1
2017-08-14T09:32:23.180Z,24.8
2017-08-14T09:33:24.596Z,25.1
2017-08-14T09:34:26.046Z,25.1
2017-08-14T09:35:27.437Z,25.4
2017-08-14T09:36:28.844Z,25.5
2017-08-14T09:37:30.250Z,25.6
2017-08-14T09:38:31.686Z,25.7
2017-08-14T09:39:33.093Z,25.7
2017-08-14T09:40:34.494Z,25.4
2017-08-14T09:41:35.898Z,25.5
2017-08-14T09:42:37.307Z,25.7
2017-08-14T09:43:38.710Z,25.8
2017-08-14T09:44:40.122Z,25.7
2017-08-14T09:45:41.546Z,25.8
2017-08-14T09:46:43.008Z,26.1
2017-08-14T09:47:44.445Z,25.9
2017-08-14T09:48:45.886Z,25.8
2017-08-14T09:49:47.334Z,26.0
2017-08-14T09:50:48.794Z,26.0
2017-08-14T09:51:50.247Z,26.0
2017-08-14T09:52:53.681Z,26.0
2017-08-14T09:53:55.087Z,26.0
2017-08-14T09:54:56.557Z,26.2
2017-08-14T09:55:58.006Z,26.2
2017-08-14T09:56:59.412Z,26.6
2017-08-14T09:58:00.823Z,26.8
2017-08-14T09:59:02.319Z,26.7
2017-08-14T10:00:03.706Z,26.1
2017-08-14T10:01:40.839Z,26.2
2017-08-14T10:02:42.378Z,26.2
2017-08-14T10:03:44.797Z,26.3
2017-08-14T10:04:46.358Z,26.5
2017-08-14T10:05:47.784Z,26.5
2017-08-14T10:06:49.237Z,26.3
2017-08-14T10:07:51.671Z,26.5
2017-08-14T10:08:53.118Z,26.6
2017-08-14T10:09:54.534Z,26.9
2017-08-14T10:10:55.957Z,26.6
2017-08-14T10:11:57.536Z,26.8
2017-08-14T10:12:59.200Z,27.0
2017-08-14T10:14:00.815Z,26.8
2017-08-14T10:15:02.466Z,26.8
2017-08-14T10:16:04.329Z,26.5
2017-08-14T10:17:07.650Z,26.7
2017-08-14T10:18:12.354Z,26.8
2017-08-14T10:19:14.153Z,26.8
2017-08-14T10:20:19.334Z,26.9
2017-08-14T10:21:20.952Z,26.8
2017-08-14T10:22:22.500Z,27.0
2017-08-14T10:23:24.826Z,27.2
2017-08-14T10:24:26.436Z,27.3
2017-08-14T10:25:27.944Z,27.4
2017-08-14T10:26:30.088Z,27.6
2017-08-14T10:27:33.315Z,27.4
2017-08-14T10:28:35.688Z,27.2
2017-08-14T10:29:37.277Z,27.3
2017-08-14T10:30:40.196Z,27.0
2017-08-14T10:31:42.423Z,26.4
2017-08-14T10:32:45.492Z,26.2
2017-08-14T10:33:47.082Z,26.3
2017-08-14T10:34:48.700Z,26.4
2017-08-14T10:35:51.423Z,26.3
2017-08-14T10:36:52.970Z,26.4
2017-08-14T10:37:54.605Z,26.8
2017-08-14T10:38:57.931Z,26.9
2017-08-14T10:39:59.567Z,26.9
2017-08-14T10:41:02.817Z,26.9
2017-08-14T10:42:04.370Z,26.7
2017-08-14T10:43:08.393Z,26.6
2017-08-14T10:44:10.171Z,26.4
2017-08-14T10:45:12.333Z,26.5
2017-08-14T10:46:13.333Z,26.4
2017-08-14T10:47:15.044Z,26.4
2017-08-14T10:48:19.339Z,26.4
2017-08-14T10:49:21.858Z,26.3
2017-08-14T10:50:24.343Z,26.4
2017-08-14T10:51:27.676Z,26.5
2017-08-14T10:52:30.672Z,26.7
2017-08-14T10:53:34.204Z,27.1
2017-08-14T10:54:37.412Z,27.2
2017-08-14T10:55:39.848Z,27.1
2017-08-14T10:56:41.610Z,27.0
2017-08-14T10:57:44.867Z,27.1
2017-08-14T10:58:47.263Z,27.2
2017-08-14T10:59:49.823Z,26.9
2017-08-14T11:00:52.447Z,26.7
2017-08-14T11:01:54.607Z,26.8
2017-08-14T11:02:57.202Z,27.0
2017-08-14T11:03:58.793Z,27.2
2017-08-14T11:05:01.090Z,26.7
2017-08-14T11:06:02.660Z,26.8
2017-08-14T11:07:05.841Z,27.1
2017-08-14T11:08:07.934Z,27.2
2017-08-14T11:09:10.061Z,27.3
2017-08-14T11:10:13.911Z,27.4
2017-08-14T11:11:16.314Z,27.2
2017-08-14T11:12:18.010Z,27.0
2017-08-14T11:13:20.706Z,27.2
2017-08-14T11:14:22.856Z,27.0
2017-08-14T11:15:25.683Z,27.3
2017-08-14T11:16:27.325Z,27.6
2017-08-14T11:17:29.642Z,27.6
2017-08-14T11:18:31.903Z,27.7
2017-08-14T11:19:34.013Z,27.8
2017-08-14T11:20:36.286Z,27.6
2017-08-14T11:21:38.808Z,27.5
2017-08-14T11:22:41.344Z,27.6
2017-08-14T11:23:43.470Z,27.7
2017-08-14T11:24:45.353Z,27.5
2017-08-14T11:25:47.634Z,27.4
2017-08-14T11:26:49.412Z,27.2
2017-08-14T11:27:51.704Z,27.1
2017-08-14T11:28:53.390Z,26.8
2017-08-14T11:29:54.980Z,27.0
2017-08-14T11:30:56.765Z,26.8
2017-08-14T11:31:59.003Z,27.0
2017-08-14T11:33:01.269Z,27.1
2017-08-14T11:34:03.411Z,27.0
2017-08-14T11:35:05.898Z,27.2
2017-08-14T11:36:08.116Z,27.3
2017-08-14T11:37:10.572Z,27.4
2017-08-14T11:38:12.948Z,27.5
2017-08-14T11:39:15.840Z,27.5
2017-08-14T11:40:18.059Z,27.6
2017-08-14T11:41:20.154Z,27.7
2017-08-14T11:42:21.697Z,27.7
2017-08-14T11:43:23.371Z,27.3
2017-08-14T11:44:25.012Z,27.4
2017-08-14T11:45:26.599Z,27.4
2017-08-14T11:46:28.202Z,26.9
2017-08-14T11:47:29.845Z,26.8
2017-08-14T11:48:31.516Z,27.1
2017-08-14T11:49:33.140Z,27.0
2017-08-14T11:50:34.770Z,26.8
2017-08-14T11:51:36.448Z,27.0
2017-08-14T11:52:37.872Z,27.2
2017-08-14T11:53:39.462Z,27.4
2017-08-14T11:54:41.005Z,27.4
2017-08-14T11:55:42.563Z,27.5
2017-08-14T11:56:44.156Z,27.4
2017-08-14T11:57:45.806Z,27.3
2017-08-14T11:58:47.453Z,27.4
2017-08-14T11:59:49.099Z,27.4
2017-08-14T12:00:50.765Z,27.4
2017-08-14T12:01:52.396Z,27.7
2017-08-14T12:02:54.064Z,27.6
2017-08-14T12:03:55.727Z,27.8
2017-08-14T12:04:57.395Z,28.1
2017-08-14T12:05:58.928Z,28.2
2017-08-14T12:07:00.529Z,28.4
2017-08-14T12:08:02.218Z,28.4
2017-08-14T12:09:03.781Z,28.1
2017-08-14T12:10:05.460Z,27.8
2017-08-14T12:11:07.125Z,27.4
2017-08-14T12:12:08.730Z,27.4
2017-08-14T12:13:10.512Z,27.5
2017-08-14T12:14:12.200Z,27.8
2017-08-14T12:15:13.907Z,27.9
2017-08-14T12:16:15.593Z,27.9
2017-08-14T12:17:17.169Z,28.0
2017-08-14T12:18:18.731Z,27.7
2017-08-14T12:19:20.339Z,27.6
2017-08-14T12:20:21.887Z,27.7
2017-08-14T12:21:23.474Z,27.8
2017-08-14T12:22:25.161Z,27.8
2017-08-14T12:23:26.785Z,27.9
2017-08-14T12:24:28.296Z,27.9
2017-08-14T12:25:29.862Z,28.1
2017-08-14T12:26:31.460Z,28.2
2017-08-14T12:27:33.097Z,28.5
2017-08-14T12:28:34.696Z,28.3
2017-08-14T12:29:36.298Z,27.9
2017-08-14T12:30:37.874Z,27.7
2017-08-14T12:31:40.515Z,27.5
2017-08-14T12:32:42.227Z,27.6
2017-08-14T12:33:44.892Z,27.7
2017-08-14T12:34:46.522Z,28.0
2017-08-14T12:35:53.079Z,27.9
2017-08-14T12:36:54.771Z,27.9
2017-08-14T12:37:56.378Z,28.0
2017-08-14T12:38:58.059Z,28.0
2017-08-14T12:39:59.607Z,28.0
2017-08-14T12:41:01.316Z,27.9
2017-08-14T12:42:02.958Z,28.1
2017-08-14T12:43:04.726Z,28.1
2017-08-14T12:44:06.403Z,28.0
2017-08-14T12:45:08.095Z,27.8
2017-08-14T12:46:09.687Z,28.0
2017-08-14T12:47:11.485Z,28.4
2017-08-14T12:48:13.156Z,28.3
2017-08-14T12:49:14.672Z,28.1
2017-08-14T12:50:16.197Z,28.1
2017-08-14T12:51:17.743Z,28.0
2017-08-14T12:52:19.275Z,28.2
2017-08-14T12:53:20.818Z,28.2
2017-08-14T12:54:23.462Z,28.1
2017-08-14T12:55:25.005Z,28.1
2017-08-14T12:56:26.517Z,28.0
2017-08-14T12:57:28.000Z,28.0
2017-08-14T12:58:30.557Z,27.8
2017-08-14T12:59:32.058Z,28.1
2017-08-14T13:00:33.585Z,28.0
2017-08-14T13:01:35.260Z,27.9
2017-08-14T13:02:37.786Z,27.7
2017-08-14T13:03:39.387Z,27.6
2017-08-14T13:04:41.075Z,27.8
2017-08-14T13:05:42.672Z,28.0
2017-08-14T13:06:44.330Z,28.0
2017-08-14T13:07:45.971Z,27.8
2017-08-14T13:08:47.598Z,27.7
2017-08-14T13:09:49.449Z,27.8
2017-08-14T13:10:51.045Z,27.9
2017-08-14T13:11:52.642Z,28.2
2017-08-14T13:12:55.251Z,28.0
2017-08-14T13:13:56.809Z,28.0
2017-08-14T13:14:58.429Z,27.9
2017-08-14T13:15:59.999Z,27.7
2017-08-14T13:17:01.683Z,27.6
2017-08-14T13:18:03.301Z,27.8
2017-08-14T13:19:05.061Z,27.8
2017-08-14T13:20:06.894Z,27.7
2017-08-14T13:21:08.870Z,27.7
2017-08-14T13:22:10.986Z,27.6
2017-08-14T13:23:13.041Z,27.6
2017-08-14T13:24:14.977Z,27.5
2017-08-14T13:25:17.136Z,27.4
2017-08-14T13:26:19.293Z,27.3
2017-08-14T13:27:21.445Z,27.3
2017-08-14T13:28:23.715Z,27.3
2017-08-14T13:29:25.983Z,27.5
2017-08-14T13:30:27.949Z,27.5
2017-08-14T13:31:29.505Z,27.5
2017-08-14T13:32:31.084Z,27.6
2017-08-14T13:33:32.698Z,27.3
2017-08-14T13:34:34.281Z,27.2
2017-08-14T13:35:36.927Z,27.4
2017-08-14T13:36:38.534Z,27.4
2017-08-14T13:37:40.203Z,27.4
2017-08-14T13:38:41.812Z,27.6
2017-08-14T13:39:43.491Z,27.8
2017-08-14T13:40:45.080Z,27.8
2017-08-14T13:41:46.631Z,27.6
2017-08-14T13:42:48.209Z,27.6
2017-08-14T13:43:49.810Z,27.7